sensor_id;sensor_type;location;lat;lon;timestamp;P1;durP1;ratioP1;P2;durP2;ratioP2
64487;SDS011;50864;45.050;39.014;2023-04-01T00:01:09;3.50;;;2.30;;
64487;SDS011;50864;45.050;39.014;2023-04-01T00:03:36;3.58;;;2.40;;
64487;SDS011;50864;45.050;39.014;2023-04-01T00:06:03;4.72;;;2.50;;
64487;SDS011;50864;45.050;39.014;2023-04-01T00:08:32;4.62;;;2.58;;
64487;SDS011;50864;45.050;39.014;2023-04-01T00:10:59;4.68;;;2.30;;
64487;SDS011;50864;45.050;39.014;2023-04-01T00:13:25;4.35;;;2.25;;
64487;SDS011;50864;45.050;39.014;2023-04-01T00:15:53;4.50;;;2.37;;
64487;SDS011;50864;45.050;39.014;2023-04-01T00:18:20;3.67;;;2.22;;
64487;SDS011;50864;45.050;39.014;2023-04-01T00:20:47;3.45;;;2.30;;
64487;SDS011;50864;45.050;39.014;2023-04-01T00:23:14;3.72;;;2.35;;
64487;SDS011;50864;45.050;39.014;2023-04-01T00:25:41;6.10;;;2.78;;
64487;SDS011;50864;45.050;39.014;2023-04-01T00:28:07;2.75;;;2.08;;
64487;SDS011;50864;45.050;39.014;2023-04-01T00:30:33;9.15;;;3.25;;
64487;SDS011;50864;45.050;39.014;2023-04-01T00:32:59;5.62;;;2.30;;
64487;SDS011;50864;45.050;39.014;2023-04-01T00:35:26;4.93;;;2.28;;
64487;SDS011;50864;45.050;39.014;2023-04-01T00:37:52;2.75;;;2.00;;
64487;SDS011;50864;45.050;39.014;2023-04-01T00:40:29;3.50;;;2.33;;
64487;SDS011;50864;45.050;39.014;2023-04-01T00:42:56;2.90;;;2.25;;
64487;SDS011;50864;45.050;39.014;2023-04-01T00:45:55;4.62;;;2.10;;
64487;SDS011;50864;45.050;39.014;2023-04-01T00:48:19;4.13;;;2.23;;
64487;SDS011;50864;45.050;39.014;2023-04-01T00:51:00;3.70;;;1.92;;
64487;SDS011;50864;45.050;39.014;2023-04-01T00:53:28;2.87;;;2.00;;
64487;SDS011;50864;45.050;39.014;2023-04-01T00:56:56;2.78;;;2.00;;
64487;SDS011;50864;45.050;39.014;2023-04-01T00:58:57;3.22;;;2.10;;
64487;SDS011;50864;45.050;39.014;2023-04-01T01:01:25;3.55;;;2.30;;
64487;SDS011;50864;45.050;39.014;2023-04-01T01:03:51;4.07;;;2.17;;
64487;SDS011;50864;45.050;39.014;2023-04-01T01:09:10;3.08;;;2.20;;
64487;SDS011;50864;45.050;39.014;2023-04-01T01:22:54;5.35;;;2.47;;
64487;SDS011;50864;45.050;39.014;2023-04-01T01:27:42;4.10;;;2.50;;
64487;SDS011;50864;45.050;39.014;2023-04-01T01:37:49;2.72;;;2.05;;
64487;SDS011;50864;45.050;39.014;2023-04-01T01:40:17;3.20;;;1.90;;
64487;SDS011;50864;45.050;39.014;2023-04-01T01:42:46;6.43;;;2.30;;
64487;SDS011;50864;45.050;39.014;2023-04-01T01:45:14;4.10;;;2.25;;
64487;SDS011;50864;45.050;39.014;2023-04-01T01:47:44;3.33;;;2.33;;
64487;SDS011;50864;45.050;39.014;2023-04-01T01:50:12;3.65;;;2.20;;
64487;SDS011;50864;45.050;39.014;2023-04-01T01:52:39;4.90;;;2.50;;
64487;SDS011;50864;45.050;39.014;2023-04-01T01:55:22;4.75;;;2.40;;
64487;SDS011;50864;45.050;39.014;2023-04-01T01:57:49;5.35;;;2.47;;
64487;SDS011;50864;45.050;39.014;2023-04-01T02:00:17;3.60;;;2.95;;
64487;SDS011;50864;45.050;39.014;2023-04-01T02:02:46;2.65;;;2.10;;
64487;SDS011;50864;45.050;39.014;2023-04-01T02:05:17;3.55;;;2.67;;
64487;SDS011;50864;45.050;39.014;2023-04-01T02:07:46;4.37;;;2.10;;
64487;SDS011;50864;45.050;39.014;2023-04-01T02:10:15;3.10;;;2.30;;
64487;SDS011;50864;45.050;39.014;2023-04-01T02:12:41;5.28;;;2.65;;
64487;SDS011;50864;45.050;39.014;2023-04-01T02:15:11;4.53;;;2.33;;
64487;SDS011;50864;45.050;39.014;2023-04-01T02:17:39;3.92;;;2.60;;
64487;SDS011;50864;45.050;39.014;2023-04-01T02:20:10;3.70;;;2.47;;
64487;SDS011;50864;45.050;39.014;2023-04-01T02:22:42;3.65;;;2.72;;
64487;SDS011;50864;45.050;39.014;2023-04-01T02:25:11;4.82;;;2.83;;
64487;SDS011;50864;45.050;39.014;2023-04-01T02:27:39;4.80;;;2.28;;
64487;SDS011;50864;45.050;39.014;2023-04-01T02:30:07;1.75;;;1.65;;
64487;SDS011;50864;45.050;39.014;2023-04-01T02:32:33;2.67;;;1.95;;
64487;SDS011;50864;45.050;39.014;2023-04-01T02:34:59;2.85;;;1.87;;
64487;SDS011;50864;45.050;39.014;2023-04-01T02:37:29;3.03;;;1.92;;
64487;SDS011;50864;45.050;39.014;2023-04-01T02:40:01;2.33;;;2.00;;
64487;SDS011;50864;45.050;39.014;2023-04-01T02:42:28;2.85;;;2.03;;
64487;SDS011;50864;45.050;39.014;2023-04-01T02:44:53;5.78;;;2.25;;
64487;SDS011;50864;45.050;39.014;2023-04-01T02:47:19;2.28;;;2.05;;
64487;SDS011;50864;45.050;39.014;2023-04-01T02:49:46;3.42;;;2.15;;
64487;SDS011;50864;45.050;39.014;2023-04-01T02:52:12;2.20;;;1.87;;
64487;SDS011;50864;45.050;39.014;2023-04-01T02:54:39;4.53;;;2.35;;
64487;SDS011;50864;45.050;39.014;2023-04-01T02:57:06;1.85;;;1.75;;
64487;SDS011;50864;45.050;39.014;2023-04-01T02:59:32;2.92;;;2.10;;
64487;SDS011;50864;45.050;39.014;2023-04-01T03:01:59;2.65;;;1.92;;
64487;SDS011;50864;45.050;39.014;2023-04-01T03:04:24;3.70;;;2.58;;
64487;SDS011;50864;45.050;39.014;2023-04-01T03:06:51;2.37;;;1.90;;
64487;SDS011;50864;45.050;39.014;2023-04-01T03:09:18;2.67;;;2.12;;
64487;SDS011;50864;45.050;39.014;2023-04-01T03:11:44;3.15;;;1.90;;
64487;SDS011;50864;45.050;39.014;2023-04-01T03:14:10;5.40;;;1.95;;
64487;SDS011;50864;45.050;39.014;2023-04-01T03:16:38;3.33;;;1.95;;
64487;SDS011;50864;45.050;39.014;2023-04-01T03:19:05;8.25;;;2.15;;
64487;SDS011;50864;45.050;39.014;2023-04-01T03:21:31;4.93;;;2.10;;
64487;SDS011;50864;45.050;39.014;2023-04-01T03:23:57;3.33;;;1.85;;
64487;SDS011;50864;45.050;39.014;2023-04-01T03:26:24;3.08;;;2.15;;
64487;SDS011;50864;45.050;39.014;2023-04-01T03:28:52;2.55;;;1.80;;
64487;SDS011;50864;45.050;39.014;2023-04-01T03:31:19;3.17;;;2.20;;
64487;SDS011;50864;45.050;39.014;2023-04-01T03:33:46;4.00;;;2.03;;
64487;SDS011;50864;45.050;39.014;2023-04-01T03:36:13;3.20;;;2.28;;
64487;SDS011;50864;45.050;39.014;2023-04-01T03:38:40;2.72;;;2.10;;
64487;SDS011;50864;45.050;39.014;2023-04-01T03:41:07;2.30;;;2.00;;
64487;SDS011;50864;45.050;39.014;2023-04-01T03:43:33;4.10;;;2.20;;
64487;SDS011;50864;45.050;39.014;2023-04-01T03:45:59;2.30;;;1.80;;
64487;SDS011;50864;45.050;39.014;2023-04-01T03:48:27;4.00;;;2.17;;
64487;SDS011;50864;45.050;39.014;2023-04-01T03:50:53;1.87;;;1.75;;
64487;SDS011;50864;45.050;39.014;2023-04-01T03:53:22;1.73;;;1.62;;
64487;SDS011;50864;45.050;39.014;2023-04-01T03:55:49;3.67;;;1.85;;
64487;SDS011;50864;45.050;39.014;2023-04-01T03:58:17;4.12;;;2.20;;
64487;SDS011;50864;45.050;39.014;2023-04-01T04:00:45;2.33;;;2.00;;
64487;SDS011;50864;45.050;39.014;2023-04-01T04:03:13;2.20;;;2.00;;
64487;SDS011;50864;45.050;39.014;2023-04-01T04:05:49;2.10;;;1.85;;
64487;SDS011;50864;45.050;39.014;2023-04-01T04:08:17;2.15;;;1.87;;
64487;SDS011;50864;45.050;39.014;2023-04-01T04:10:44;2.35;;;2.10;;
64487;SDS011;50864;45.050;39.014;2023-04-01T04:13:12;2.55;;;1.90;;
64487;SDS011;50864;45.050;39.014;2023-04-01T04:15:41;1.65;;;1.55;;
64487;SDS011;50864;45.050;39.014;2023-04-01T04:18:08;2.47;;;2.00;;
64487;SDS011;50864;45.050;39.014;2023-04-01T04:20:35;2.15;;;1.95;;
64487;SDS011;50864;45.050;39.014;2023-04-01T04:23:01;3.12;;;1.92;;
64487;SDS011;50864;45.050;39.014;2023-04-01T04:25:29;3.72;;;2.28;;
64487;SDS011;50864;45.050;39.014;2023-04-01T04:27:56;1.80;;;1.70;;
64487;SDS011;50864;45.050;39.014;2023-04-01T04:30:22;4.05;;;1.92;;
64487;SDS011;50864;45.050;39.014;2023-04-01T04:32:49;4.55;;;2.00;;
64487;SDS011;50864;45.050;39.014;2023-04-01T04:35:16;3.00;;;2.00;;
64487;SDS011;50864;45.050;39.014;2023-04-01T04:37:43;1.70;;;1.60;;
64487;SDS011;50864;45.050;39.014;2023-04-01T04:40:10;2.35;;;1.80;;
64487;SDS011;50864;45.050;39.014;2023-04-01T04:42:38;3.60;;;2.00;;
64487;SDS011;50864;45.050;39.014;2023-04-01T04:45:05;3.35;;;2.58;;
64487;SDS011;50864;45.050;39.014;2023-04-01T04:47:31;2.37;;;1.83;;
64487;SDS011;50864;45.050;39.014;2023-04-01T04:49:57;2.20;;;1.80;;
64487;SDS011;50864;45.050;39.014;2023-04-01T04:52:24;2.00;;;1.77;;
64487;SDS011;50864;45.050;39.014;2023-04-01T04:54:50;3.25;;;1.67;;
64487;SDS011;50864;45.050;39.014;2023-04-01T04:57:16;2.35;;;2.10;;
64487;SDS011;50864;45.050;39.014;2023-04-01T04:59:45;3.62;;;2.15;;
64487;SDS011;50864;45.050;39.014;2023-04-01T05:02:11;4.70;;;2.08;;
64487;SDS011;50864;45.050;39.014;2023-04-01T05:04:37;1.85;;;1.73;;
64487;SDS011;50864;45.050;39.014;2023-04-01T05:07:03;2.60;;;1.87;;
64487;SDS011;50864;45.050;39.014;2023-04-01T05:09:29;4.12;;;2.08;;
64487;SDS011;50864;45.050;39.014;2023-04-01T05:11:56;4.35;;;2.17;;
64487;SDS011;50864;45.050;39.014;2023-04-01T05:14:23;4.47;;;2.10;;
64487;SDS011;50864;45.050;39.014;2023-04-01T05:16:50;3.10;;;1.87;;
64487;SDS011;50864;45.050;39.014;2023-04-01T05:19:20;3.55;;;1.98;;
64487;SDS011;50864;45.050;39.014;2023-04-01T05:21:46;1.83;;;1.60;;
64487;SDS011;50864;45.050;39.014;2023-04-01T05:24:12;2.80;;;1.83;;
64487;SDS011;50864;45.050;39.014;2023-04-01T05:26:41;2.83;;;1.80;;
64487;SDS011;50864;45.050;39.014;2023-04-01T05:29:07;1.70;;;1.60;;
64487;SDS011;50864;45.050;39.014;2023-04-01T05:31:33;1.85;;;1.62;;
64487;SDS011;50864;45.050;39.014;2023-04-01T05:33:59;3.20;;;1.70;;
64487;SDS011;50864;45.050;39.014;2023-04-01T05:36:26;2.17;;;1.60;;
64487;SDS011;50864;45.050;39.014;2023-04-01T05:38:56;3.28;;;1.87;;
64487;SDS011;50864;45.050;39.014;2023-04-01T05:41:22;2.87;;;1.60;;
64487;SDS011;50864;45.050;39.014;2023-04-01T05:43:48;5.18;;;1.40;;
64487;SDS011;50864;45.050;39.014;2023-04-01T05:46:14;1.80;;;1.60;;
64487;SDS011;50864;45.050;39.014;2023-04-01T05:48:41;3.35;;;1.80;;
64487;SDS011;50864;45.050;39.014;2023-04-01T05:51:11;1.80;;;1.70;;
64487;SDS011;50864;45.050;39.014;2023-04-01T05:53:37;3.00;;;1.50;;
64487;SDS011;50864;45.050;39.014;2023-04-01T05:56:03;17.77;;;2.70;;
64487;SDS011;50864;45.050;39.014;2023-04-01T05:58:31;3.08;;;1.77;;
64487;SDS011;50864;45.050;39.014;2023-04-01T06:01:05;3.40;;;1.70;;
64487;SDS011;50864;45.050;39.014;2023-04-01T06:03:33;2.78;;;1.60;;
64487;SDS011;50864;45.050;39.014;2023-04-01T06:05:59;2.03;;;1.67;;
64487;SDS011;50864;45.050;39.014;2023-04-01T06:08:26;1.70;;;1.60;;
64487;SDS011;50864;45.050;39.014;2023-04-01T06:16:12;2.47;;;1.70;;
64487;SDS011;50864;45.050;39.014;2023-04-01T06:33:08;3.33;;;1.98;;
64487;SDS011;50864;45.050;39.014;2023-04-01T06:42:58;3.22;;;1.70;;
64487;SDS011;50864;45.050;39.014;2023-04-01T06:45:39;3.42;;;1.80;;
64487;SDS011;50864;45.050;39.014;2023-04-01T06:56:34;2.55;;;1.65;;
64487;SDS011;50864;45.050;39.014;2023-04-01T06:59:12;2.15;;;1.50;;
64487;SDS011;50864;45.050;39.014;2023-04-01T07:04:17;3.75;;;1.60;;
64487;SDS011;50864;45.050;39.014;2023-04-01T07:06:47;1.75;;;1.45;;
64487;SDS011;50864;45.050;39.014;2023-04-01T07:09:37;2.45;;;1.60;;
64487;SDS011;50864;45.050;39.014;2023-04-01T07:12:12;3.47;;;1.60;;
64487;SDS011;50864;45.050;39.014;2023-04-01T07:14:58;1.73;;;1.30;;
64487;SDS011;50864;45.050;39.014;2023-04-01T07:17:31;1.75;;;1.60;;
64487;SDS011;50864;45.050;39.014;2023-04-01T07:20:00;1.60;;;1.50;;
64487;SDS011;50864;45.050;39.014;2023-04-01T07:24:57;3.00;;;1.70;;
64487;SDS011;50864;45.050;39.014;2023-04-01T07:27:27;1.30;;;1.20;;
64487;SDS011;50864;45.050;39.014;2023-04-01T07:29:55;2.25;;;1.52;;
64487;SDS011;50864;45.050;39.014;2023-04-01T07:37:34;1.98;;;1.60;;
64487;SDS011;50864;45.050;39.014;2023-04-01T07:45:24;4.53;;;1.65;;
64487;SDS011;50864;45.050;39.014;2023-04-01T07:48:10;2.70;;;1.62;;
64487;SDS011;50864;45.050;39.014;2023-04-01T08:00:46;2.10;;;1.50;;
64487;SDS011;50864;45.050;39.014;2023-04-01T08:08:39;1.83;;;1.52;;
64487;SDS011;50864;45.050;39.014;2023-04-01T08:11:20;3.12;;;1.52;;
64487;SDS011;50864;45.050;39.014;2023-04-01T08:14:19;1.50;;;1.40;;
64487;SDS011;50864;45.050;39.014;2023-04-01T08:22:03;2.28;;;1.50;;
64487;SDS011;50864;45.050;39.014;2023-04-01T08:24:37;2.45;;;2.00;;
64487;SDS011;50864;45.050;39.014;2023-04-01T08:27:06;3.30;;;2.00;;
64487;SDS011;50864;45.050;39.014;2023-04-01T08:29:44;2.17;;;1.42;;
64487;SDS011;50864;45.050;39.014;2023-04-01T08:32:13;3.55;;;1.95;;
64487;SDS011;50864;45.050;39.014;2023-04-01T08:34:45;2.92;;;1.65;;
64487;SDS011;50864;45.050;39.014;2023-04-01T08:42:37;2.28;;;1.30;;
64487;SDS011;50864;45.050;39.014;2023-04-01T08:56:03;2.90;;;1.50;;
64487;SDS011;50864;45.050;39.014;2023-04-01T09:11:44;2.67;;;1.48;;
64487;SDS011;50864;45.050;39.014;2023-04-01T09:22:03;3.95;;;1.62;;
64487;SDS011;50864;45.050;39.014;2023-04-01T09:25:19;2.75;;;1.50;;
64487;SDS011;50864;45.050;39.014;2023-04-01T09:27:26;2.40;;;1.50;;
64487;SDS011;50864;45.050;39.014;2023-04-01T09:35:14;2.43;;;1.50;;
64487;SDS011;50864;45.050;39.014;2023-04-01T09:40:15;2.85;;;1.50;;
64487;SDS011;50864;45.050;39.014;2023-04-01T10:10:17;4.47;;;1.92;;
64487;SDS011;50864;45.050;39.014;2023-04-01T10:28:08;3.08;;;1.83;;
64487;SDS011;50864;45.050;39.014;2023-04-01T10:38:56;4.03;;;1.80;;
64487;SDS011;50864;45.050;39.014;2023-04-01T10:54:40;3.35;;;1.80;;
64487;SDS011;50864;45.050;39.014;2023-04-01T11:18:41;2.95;;;1.60;;
64487;SDS011;50864;45.050;39.014;2023-04-01T11:44:53;3.95;;;1.85;;
64487;SDS011;50864;45.050;39.014;2023-04-01T11:55:23;2.53;;;1.58;;
64487;SDS011;50864;45.050;39.014;2023-04-01T12:05:36;3.42;;;1.67;;
64487;SDS011;50864;45.050;39.014;2023-04-01T12:10:38;2.85;;;1.50;;
64487;SDS011;50864;45.050;39.014;2023-04-01T12:13:17;6.35;;;1.80;;
64487;SDS011;50864;45.050;39.014;2023-04-01T12:18:43;3.80;;;1.73;;
64487;SDS011;50864;45.050;39.014;2023-04-01T12:26:43;2.25;;;1.50;;
64487;SDS011;50864;45.050;39.014;2023-04-01T12:37:17;5.03;;;1.75;;
64487;SDS011;50864;45.050;39.014;2023-04-01T12:39:53;1.65;;;1.40;;
64487;SDS011;50864;45.050;39.014;2023-04-01T12:42:28;2.15;;;1.60;;
64487;SDS011;50864;45.050;39.014;2023-04-01T12:55:37;5.00;;;1.80;;
64487;SDS011;50864;45.050;39.014;2023-04-01T13:01:01;1.52;;;1.25;;
64487;SDS011;50864;45.050;39.014;2023-04-01T13:14:01;2.50;;;1.42;;
64487;SDS011;50864;45.050;39.014;2023-04-01T13:16:39;4.30;;;1.70;;
64487;SDS011;50864;45.050;39.014;2023-04-01T13:24:29;3.72;;;1.85;;
64487;SDS011;50864;45.050;39.014;2023-04-01T13:32:18;2.97;;;1.80;;
64487;SDS011;50864;45.050;39.014;2023-04-01T13:34:48;1.95;;;1.52;;
64487;SDS011;50864;45.050;39.014;2023-04-01T13:40:15;1.50;;;1.40;;
64487;SDS011;50864;45.050;39.014;2023-04-01T13:43:29;1.77;;;1.42;;
64487;SDS011;50864;45.050;39.014;2023-04-01T13:56:24;4.40;;;2.00;;
64487;SDS011;50864;45.050;39.014;2023-04-01T14:17:36;5.07;;;2.08;;
64487;SDS011;50864;45.050;39.014;2023-04-01T14:25:23;2.65;;;1.75;;
64487;SDS011;50864;45.050;39.014;2023-04-01T14:27:55;2.50;;;1.73;;
64487;SDS011;50864;45.050;39.014;2023-04-01T14:38:06;4.43;;;2.40;;
64487;SDS011;50864;45.050;39.014;2023-04-01T14:59:09;5.90;;;2.30;;
64487;SDS011;50864;45.050;39.014;2023-04-01T15:06:50;4.10;;;1.90;;
64487;SDS011;50864;45.050;39.014;2023-04-01T15:32:48;6.53;;;3.05;;
64487;SDS011;50864;45.050;39.014;2023-04-01T15:38:06;5.18;;;2.22;;
64487;SDS011;50864;45.050;39.014;2023-04-01T15:40:41;6.18;;;2.65;;
64487;SDS011;50864;45.050;39.014;2023-04-01T15:58:30;7.45;;;2.53;;
64487;SDS011;50864;45.050;39.014;2023-04-01T16:01:10;7.30;;;2.90;;
64487;SDS011;50864;45.050;39.014;2023-04-01T16:03:45;4.05;;;2.20;;
64487;SDS011;50864;45.050;39.014;2023-04-01T16:16:22;6.80;;;2.28;;
64487;SDS011;50864;45.050;39.014;2023-04-01T16:19:11;6.28;;;2.78;;
64487;SDS011;50864;45.050;39.014;2023-04-01T16:21:48;8.15;;;3.30;;
64487;SDS011;50864;45.050;39.014;2023-04-01T16:24:17;5.10;;;2.92;;
64487;SDS011;50864;45.050;39.014;2023-04-01T16:29:35;9.98;;;2.47;;
64487;SDS011;50864;45.050;39.014;2023-04-01T16:42:49;9.38;;;3.75;;
64487;SDS011;50864;45.050;39.014;2023-04-01T16:48:05;8.98;;;3.90;;
64487;SDS011;50864;45.050;39.014;2023-04-01T16:50:48;7.03;;;3.15;;
64487;SDS011;50864;45.050;39.014;2023-04-01T16:53:18;12.35;;;3.60;;
64487;SDS011;50864;45.050;39.014;2023-04-01T16:58:27;12.68;;;3.37;;
64487;SDS011;50864;45.050;39.014;2023-04-01T17:01:07;7.93;;;3.15;;
64487;SDS011;50864;45.050;39.014;2023-04-01T17:03:44;9.05;;;3.10;;
64487;SDS011;50864;45.050;39.014;2023-04-01T17:06:13;7.25;;;3.12;;
64487;SDS011;50864;45.050;39.014;2023-04-01T17:08:49;8.32;;;3.42;;
64487;SDS011;50864;45.050;39.014;2023-04-01T17:11:17;9.88;;;3.67;;
64487;SDS011;50864;45.050;39.014;2023-04-01T17:14:02;9.48;;;3.80;;
64487;SDS011;50864;45.050;39.014;2023-04-01T17:19:14;8.27;;;4.20;;
64487;SDS011;50864;45.050;39.014;2023-04-01T17:27:39;8.18;;;4.45;;
64487;SDS011;50864;45.050;39.014;2023-04-01T17:32:19;9.13;;;5.18;;
64487;SDS011;50864;45.050;39.014;2023-04-01T17:42:16;11.05;;;5.65;;
64487;SDS011;50864;45.050;39.014;2023-04-01T17:47:31;23.77;;;10.43;;
64487;SDS011;50864;45.050;39.014;2023-04-01T17:50:09;25.90;;;11.38;;
64487;SDS011;50864;45.050;39.014;2023-04-01T17:52:42;21.90;;;8.65;;
64487;SDS011;50864;45.050;39.014;2023-04-01T17:55:23;15.50;;;7.35;;
64487;SDS011;50864;45.050;39.014;2023-04-01T18:05:30;12.37;;;5.18;;
64487;SDS011;50864;45.050;39.014;2023-04-01T18:08:05;9.00;;;4.25;;
64487;SDS011;50864;45.050;39.014;2023-04-01T18:10:41;13.10;;;4.53;;
64487;SDS011;50864;45.050;39.014;2023-04-01T18:15:40;10.90;;;4.68;;
64487;SDS011;50864;45.050;39.014;2023-04-01T18:21:00;10.77;;;4.62;;
64487;SDS011;50864;45.050;39.014;2023-04-01T18:26:42;11.90;;;3.55;;
64487;SDS011;50864;45.050;39.014;2023-04-01T18:28:43;8.57;;;4.10;;
64487;SDS011;50864;45.050;39.014;2023-04-01T18:31:15;5.93;;;3.17;;
64487;SDS011;50864;45.050;39.014;2023-04-01T18:39:03;7.85;;;3.80;;
64487;SDS011;50864;45.050;39.014;2023-04-01T18:41:38;10.40;;;4.70;;
64487;SDS011;50864;45.050;39.014;2023-04-01T18:49:21;7.18;;;4.20;;
64487;SDS011;50864;45.050;39.014;2023-04-01T18:51:55;11.15;;;3.60;;
64487;SDS011;50864;45.050;39.014;2023-04-01T18:54:42;9.20;;;4.05;;
64487;SDS011;50864;45.050;39.014;2023-04-01T19:04:39;5.25;;;3.12;;
64487;SDS011;50864;45.050;39.014;2023-04-01T19:07:27;13.18;;;3.42;;
64487;SDS011;50864;45.050;39.014;2023-04-01T19:10:00;6.10;;;3.08;;
64487;SDS011;50864;45.050;39.014;2023-04-01T19:14:56;17.02;;;4.80;;
64487;SDS011;50864;45.050;39.014;2023-04-01T19:27:37;6.20;;;3.00;;
64487;SDS011;50864;45.050;39.014;2023-04-01T19:37:57;12.25;;;3.35;;
64487;SDS011;50864;45.050;39.014;2023-04-01T19:50:45;5.93;;;2.62;;
64487;SDS011;50864;45.050;39.014;2023-04-01T20:00:49;6.05;;;2.97;;
64487;SDS011;50864;45.050;39.014;2023-04-01T20:10:44;6.45;;;2.40;;
64487;SDS011;50864;45.050;39.014;2023-04-01T20:16:04;6.18;;;3.15;;
64487;SDS011;50864;45.050;39.014;2023-04-01T20:24:04;5.25;;;2.40;;
64487;SDS011;50864;45.050;39.014;2023-04-01T20:26:33;7.47;;;2.78;;
64487;SDS011;50864;45.050;39.014;2023-04-01T20:31:44;4.18;;;2.40;;
64487;SDS011;50864;45.050;39.014;2023-04-01T20:34:22;8.15;;;3.72;;
64487;SDS011;50864;45.050;39.014;2023-04-01T20:47:09;4.28;;;2.30;;
64487;SDS011;50864;45.050;39.014;2023-04-01T20:57:14;6.00;;;2.50;;
64487;SDS011;50864;45.050;39.014;2023-04-01T20:59:48;6.25;;;2.60;;
64487;SDS011;50864;45.050;39.014;2023-04-01T21:02:32;4.07;;;2.90;;
64487;SDS011;50864;45.050;39.014;2023-04-01T21:08:36;8.43;;;2.90;;
64487;SDS011;50864;45.050;39.014;2023-04-01T21:10:37;7.18;;;2.35;;
64487;SDS011;50864;45.050;39.014;2023-04-01T21:20:59;5.40;;;2.67;;
64487;SDS011;50864;45.050;39.014;2023-04-01T21:39:06;6.28;;;2.58;;
64487;SDS011;50864;45.050;39.014;2023-04-01T21:52:22;5.10;;;2.70;;
64487;SDS011;50864;45.050;39.014;2023-04-01T22:00:08;10.65;;;2.97;;
64487;SDS011;50864;45.050;39.014;2023-04-01T22:02:46;8.20;;;3.25;;
64487;SDS011;50864;45.050;39.014;2023-04-01T22:05:17;8.85;;;3.20;;
64487;SDS011;50864;45.050;39.014;2023-04-01T22:10:24;8.50;;;3.28;;
64487;SDS011;50864;45.050;39.014;2023-04-01T22:12:59;8.30;;;3.05;;
64487;SDS011;50864;45.050;39.014;2023-04-01T22:18:23;4.12;;;2.33;;
64487;SDS011;50864;45.050;39.014;2023-04-01T22:20:59;12.37;;;3.07;;
64487;SDS011;50864;45.050;39.014;2023-04-01T22:23:31;5.60;;;2.53;;
64487;SDS011;50864;45.050;39.014;2023-04-01T22:28:34;8.18;;;3.33;;
64487;SDS011;50864;45.050;39.014;2023-04-01T22:31:02;10.68;;;2.55;;
64487;SDS011;50864;45.050;39.014;2023-04-01T22:33:51;9.93;;;3.53;;
64487;SDS011;50864;45.050;39.014;2023-04-01T22:43:55;8.25;;;2.90;;
64487;SDS011;50864;45.050;39.014;2023-04-01T22:56:57;3.83;;;2.50;;
64487;SDS011;50864;45.050;39.014;2023-04-01T22:59:19;3.53;;;2.30;;
64487;SDS011;50864;45.050;39.014;2023-04-01T23:02:01;4.03;;;2.55;;
64487;SDS011;50864;45.050;39.014;2023-04-01T23:04:32;3.35;;;2.30;;
64487;SDS011;50864;45.050;39.014;2023-04-01T23:07:03;5.35;;;2.42;;
64487;SDS011;50864;45.050;39.014;2023-04-01T23:09:31;6.45;;;2.60;;
64487;SDS011;50864;45.050;39.014;2023-04-01T23:12:00;3.42;;;2.10;;
64487;SDS011;50864;45.050;39.014;2023-04-01T23:19:51;5.37;;;2.37;;
64487;SDS011;50864;45.050;39.014;2023-04-01T23:38:22;5.75;;;2.80;;
64487;SDS011;50864;45.050;39.014;2023-04-01T23:40:48;4.95;;;2.65;;
64487;SDS011;50864;45.050;39.014;2023-04-01T23:43:25;4.00;;;2.40;;
64487;SDS011;50864;45.050;39.014;2023-04-01T23:45:52;5.25;;;2.72;;
64487;SDS011;50864;45.050;39.014;2023-04-01T23:48:18;5.97;;;2.87;;
64487;SDS011;50864;45.050;39.014;2023-04-01T23:50:46;5.68;;;2.65;;
64487;SDS011;50864;45.050;39.014;2023-04-01T23:53:16;6.93;;;2.80;;
64487;SDS011;50864;45.050;39.014;2023-04-01T23:55:43;4.28;;;2.72;;
